»·PEaware :: N333ZS KMRY-KAPC

N333ZS :: KMRY-KAPC

FLIGHT INFORMATION

Flight Status: Arrived
Operator: Privately registered:
United States
More flights under this callsign
Pilot: Judd H. (29974)
Aircraft: CESSNA 182 SKYLANE
(C182)
More flights by this aircraft type
Origin: KMRY Monterey Peninsula
United States
Destination: KAPC Napa Co
United States
More flights between these airports :: More routes between these airports
Route: +SNS MOVDD CCR
File this flight plan on PilotEdge
Remarks:
Altitude:
(Current/Filed)
4,000ft
Speed:
(Current/Filed)
125kts
Departed: 16-Aug-20 12:58 PM
Arrived: 16-Aug-20 02:01 PM
Distance/Time
Traveled:
100nm/1:03
Distance/Time
To Go:
Arrived

Flight Plot

Page will automatically refresh every two minutes.

Flight plan parsing failed; only flown route is shown


Map Options




Map Legend


Flown Route
Filed Route
Departure Airport
Arrival Airport
Navaid (VOR, NDB)
Fix

Horizontal Profiles

Position Reports

Time Latitude Longitude Heading Altitude Ground
Speed
16-Aug-20 12:46 36.588481 -121.852231 25 208ft 0kts
16-Aug-20 12:47 36.588481 -121.852231 25 208ft 0kts
16-Aug-20 12:48 36.588481 -121.852231 25 208ft 0kts
16-Aug-20 12:49 36.588481 -121.852231 25 208ft 0kts
16-Aug-20 12:50 36.588481 -121.852231 25 208ft 0kts
16-Aug-20 12:51 36.588481 -121.852231 25 208ft 0kts
16-Aug-20 12:52 36.588481 -121.852230 25 208ft 0kts
16-Aug-20 12:53 36.588508 -121.852215 25 208ft 0kts
16-Aug-20 12:54 36.588473 -121.851344 116 208ft 15kts
16-Aug-20 12:55 36.586425 -121.845576 112 208ft 16kts
16-Aug-20 12:55 36.584671 -121.840508 112 208ft 18kts
16-Aug-20 12:56 36.582854 -121.835005 99 208ft 13kts
16-Aug-20 12:58 36.584175 -121.835874 291 208ft 54kts
16-Aug-20 12:59 36.595851 -121.869763 295 876ft 124kts
16-Aug-20 12:59 36.609219 -121.902545 295 1453ft 129kts
16-Aug-20 13:00 36.628852 -121.940485 329 2065ft 127kts
16-Aug-20 13:02 36.656126 -121.918277 90 3067ft 118kts
16-Aug-20 13:02 36.656235 -121.882926 88 3584ft 126kts
16-Aug-20 13:03 36.656903 -121.837392 89 4012ft 135kts
16-Aug-20 13:04 36.656625 -121.787238 87 4038ft 149kts
16-Aug-20 13:05 36.660003 -121.735841 80 4039ft 149kts
16-Aug-20 13:06 36.665424 -121.684565 87 4038ft 149kts
16-Aug-20 13:07 36.674649 -121.636669 25 4002ft 150kts
16-Aug-20 13:08 36.710242 -121.615389 25 3975ft 137kts
16-Aug-20 13:09 36.744412 -121.594723 25 3971ft 135kts
16-Aug-20 13:10 36.780748 -121.586140 7 4018ft 134kts
16-Aug-20 13:11 36.817992 -121.580499 6 4033ft 135kts
16-Aug-20 13:12 36.855679 -121.574826 6 4041ft 137kts
16-Aug-20 13:13 36.893938 -121.569065 6 4041ft 139kts
16-Aug-20 13:14 36.932406 -121.563267 6 4042ft 139kts
16-Aug-20 13:15 36.970831 -121.557470 6 4044ft 139kts
16-Aug-20 13:16 37.009469 -121.551642 6 4042ft 139kts
16-Aug-20 13:17 37.047833 -121.545851 6 4042ft 139kts
16-Aug-20 13:18 37.086280 -121.539396 7 4042ft 139kts
16-Aug-20 13:19 37.124568 -121.532758 7 4042ft 139kts
16-Aug-20 13:20 37.163099 -121.526074 7 4042ft 139kts
16-Aug-20 13:21 37.201404 -121.519429 7 4042ft 139kts
16-Aug-20 13:22 37.239921 -121.512744 7 4042ft 139kts
16-Aug-20 13:23 37.278288 -121.506077 7 4042ft 139kts
16-Aug-20 13:24 37.316678 -121.499408 7 4042ft 139kts
16-Aug-20 13:25 37.355126 -121.492723 7 4041ft 139kts
16-Aug-20 13:26 37.393510 -121.486045 7 4042ft 139kts
16-Aug-20 13:27 37.431864 -121.480019 6 4041ft 139kts
16-Aug-20 13:28 37.470372 -121.474176 6 4041ft 139kts
16-Aug-20 13:29 37.508997 -121.468310 6 4041ft 139kts
16-Aug-20 13:30 37.543261 -121.463103 6 4041ft 139kts
16-Aug-20 13:31 37.581601 -121.457277 6 4041ft 139kts
16-Aug-20 13:32 37.620381 -121.451376 6 4041ft 139kts
16-Aug-20 13:33 37.658781 -121.446308 351 4031ft 140kts
16-Aug-20 13:34 37.685141 -121.481152 308 4025ft 139kts
16-Aug-20 13:35 37.708992 -121.519756 307 4027ft 139kts
16-Aug-20 13:36 37.731690 -121.556572 307 4027ft 139kts
16-Aug-20 13:37 37.755417 -121.595071 307 4027ft 139kts
16-Aug-20 13:38 37.779290 -121.633824 307 4027ft 139kts
16-Aug-20 13:39 37.803135 -121.672537 307 4027ft 139kts
16-Aug-20 13:40 37.829437 -121.708292 313 4026ft 139kts
16-Aug-20 13:41 37.855437 -121.744822 309 4026ft 139kts
16-Aug-20 13:42 37.880855 -121.781478 308 4013ft 138kts
16-Aug-20 13:43 37.907799 -121.816805 308 3994ft 140kts
16-Aug-20 13:44 37.934882 -121.852541 309 3990ft 142kts
16-Aug-20 13:45 37.960317 -121.891041 304 3992ft 142kts
16-Aug-20 13:46 37.985677 -121.929727 302 3990ft 142kts
16-Aug-20 13:47 38.006675 -121.972087 294 3991ft 142kts
16-Aug-20 13:48 38.027846 -122.015010 300 3995ft 143kts
16-Aug-20 13:49 38.050410 -122.056913 299 3999ft 143kts
16-Aug-20 13:50 38.071940 -122.100292 294 3526ft 146kts
16-Aug-20 13:51 38.088644 -122.147884 290 3030ft 148kts
16-Aug-20 13:52 38.106818 -122.194079 297 2674ft 147kts
16-Aug-20 13:53 38.126846 -122.237990 307 2500ft 138kts
16-Aug-20 13:54 38.151146 -122.275355 309 2498ft 135kts
16-Aug-20 13:55 38.175912 -122.313780 309 2181ft 148kts
16-Aug-20 13:56 38.213016 -122.313801 25 1550ft 134kts
16-Aug-20 13:57 38.244567 -122.295850 28 990ft 121kts
16-Aug-20 13:58 38.247716 -122.270679 137 860ft 94kts
16-Aug-20 13:59 38.223489 -122.277851 199 82ft 88kts
16-Aug-20 14:00 38.215018 -122.281060 69 38ft 10kts
16-Aug-20 14:01 38.215881 -122.277556 71 38ft 21kts
16-Aug-20 14:02 38.217160 -122.274905 241 38ft 0kts
16-Aug-20 14:03 38.217160 -122.274905 241 38ft 0kts
16-Aug-20 14:04 38.217160 -122.274905 241 38ft 0kts

Navigation Log

Ident Type
Flight plan parsing failed, navigation log unavailable